Estación Meteorológica Peña el Pijo (Robertgarden) [ 05/26/19 19:39:39 CEST ]

Fecha Hora Presion(HPa) Temp (°C) Humedad % Rocio (°C) Viento ( m/s) Direccion Lluvia 1Hora(mm) Lluvia 24H(mm) LLuvia Total(mm)
2019-Jan-15 01:01:51 1009.100 -0.9 64 -6.9         161.09
2019-Jan-15 02:04:08 1009.200 -0.7 65 -6.5         161.09
2019-Jan-15 03:01:47 1009.200 -1.4 66 -7.0         161.09
2019-Jan-15 04:01:46 1009.000 -1.4 67 -6.8         161.09
2019-Jan-15 05:02:06 1008.600 -2.9 68 -8.0         161.09
2019-Jan-15 06:01:47 1008.300 -3.4 69 -8.3         161.09
2019-Jan-15 07:01:59 1008.400 -4.1 71 -8.6         161.09
2019-Jan-15 08:01:48 1008.900 -4.0 72 -8.3         161.09
2019-Jan-15 09:01:44 1009.100 -3.7 74 -7.7         161.09
2019-Jan-15 10:01:42 1009.300 1.3 70 -3.6         161.09
2019-Jan-15 11:02:03 1009.600 5.9 61 -1.1         161.09
2019-Jan-15 12:01:43 1009.400 12.2 43 -0.1 0.7 ENE     161.09
2019-Jan-15 13:01:51 1008.200 13.8 40 0.4         161.09
2019-Jan-15 14:01:48 1007.600 16.6 33 0.1         161.09
2019-Jan-15 15:01:54 1007.200 16.3 34 0.3         161.09
2019-Jan-15 16:01:51 1007.600 14.9 36 -0.1 0.7 E     161.09
2019-Jan-15 17:01:40 1007.700 12.3 43 0.0 1.5 ENE     161.09
2019-Jan-15 18:01:45 1008.000 9.3 51 -0.3         161.09
2019-Jan-15 19:01:56 1008.600 5.5 57 -2.4         161.09
2019-Jan-15 20:01:50 1009.000 3.5 64 -2.7         161.09
2019-Jan-15 21:01:42 1009.100 1.4 68 -3.9         161.09
2019-Jan-15 22:01:43 1009.300 0.6 71 -4.1         161.09
2019-Jan-15 23:01:44 1009.300 -0.1 74 -4.2         161.09

Temperatura Máxima:16°    Temperatura Mínima:-4°
Presión Máxima:1009.600 Hpa    Presión Mínima:1007.200 Hpa


Volver